Home > Products > Valid Products > MTR

000
SAUS45 KMSO 020553
MTRP69
METAR KP69 020552Z AUTO 00000KT 15/12 A2976 RMK AO1 SLP065 T01500122
10233 20150 51017





000
SAUS45 KMSO 020453
MTRP69
METAR KP69 020452Z AUTO 00000KT 16/13 A2975 RMK AO1 SLP062 T01610128





000
SAUS45 KMSO 020354
MTRP69
METAR KP69 020352Z AUTO 00000KT 17/13 A2974 RMK AO1 SLP060 T01670133





000
SAUS45 KMSO 020254
MTRP69
METAR KP69 020252Z AUTO 00000KT 18/14 A2971 RMK AO1 SLP051 T01780139
53008





000
SAUS45 KMSO 020254
MTRP69
METAR KP69 020252Z AUTO 00000KT 18/14 A2971 RMK AO1 SLP051 T01780139
53008





000
SAUS45 KMSO 020154
MTRP69
METAR KP69 020152Z AUTO 00000KT 19/14 A2968 RMK AO1 SLP042 T01940144





000
SAUS45 KMSO 020154
MTRP69
METAR KP69 020152Z AUTO 00000KT 19/14 A2968 RMK AO1 SLP042 T01940144





000
SAUS45 KMSO 020054
MTRP69
METAR KP69 020052Z AUTO 00000KT 22/13 A2968 RMK AO1 SLP039 T02170133





000
SAUS45 KMSO 012354
MTRP69
METAR KP69 012352Z AUTO 35003KT 23/14 A2968 RMK AO1 SLP039 T02330144
10294 20194 56031





000
SAUS45 KMSO 012253
MTRP69
METAR KP69 012252Z AUTO 00000KT 28/14 A2970 RMK AO1 SLP041 T02780139





000
SAUS45 KMSO 012153
MTRP69
METAR KP69 012152Z AUTO 17003KT 29/11 A2974 RMK AO1 SLP051 T02890111





000
SAUS45 KMSO 012054
MTRP69
METAR KP69 012052Z AUTO 00000KT 28/11 A2978 RMK AO1 SLP066 T02830106
56041





000
SAUS45 KMSO 012054
MTRP69
METAR KP69 012052Z AUTO 00000KT 28/11 A2978 RMK AO1 SLP066 T02830106
56041





000
SAUS45 KMSO 011954
MTRP69
METAR KP69 011952Z AUTO 00000KT 26/11 A2982 RMK AO1 SLP082 T02560106





000
SAUS45 KMSO 011853
MTRP69
METAR KP69 011852Z AUTO 00000KT 23/11 A2986 RMK AO1 SLP099 T02330106





000
SAUS45 KMSO 011754
MTRP69
METAR KP69 011752Z AUTO 35003KT 19/10 A2991 RMK AO1 SLP116 T01940100
10200 20106 58023





000
SAUS45 KMSO 011653
MTRP69
METAR KP69 011652Z AUTO 00000KT 17/10 A2994 RMK AO1 SLP129 T01670100





000
SAUS45 KMSO 011554
MTRP69
METAR KP69 011552Z AUTO 00000KT 14/10 A2996 RMK AO1 SLP139 T01390100





000
SAUS45 KMSO 011454
MTRP69
METAR KP69 011452Z AUTO 00000KT 12/09 A2998 RMK AO1 SLP146 T01170094
51006





000
SAUS45 KMSO 011454
MTRP69
METAR KP69 011452Z AUTO 00000KT 12/09 A2998 RMK AO1 SLP146 T01170094
51006





000
SAUS45 KMSO 011354
MTRP69
METAR KP69 011352Z AUTO 00000KT 11/09 A2997 RMK AO1 SLP143 T01110094





000
SAUS45 KMSO 011254
MTRP69
METAR KP69 011252Z AUTO 31003KT 11/09 A2997 RMK AO1 SLP139 T01060094





000
SAUS45 KMSO 011254
MTRP69
METAR KP69 011252Z AUTO 31003KT 11/09 A2997 RMK AO1 SLP139 T01060094





000
SAUS45 KMSO 011154
MTRP69
METAR KP69 011152Z AUTO 33003KT 11/09 A2996 RMK AO1 SLP135 T01110094
10133 20111 53005





000
SAUS45 KMSO 011154
MTRP69
METAR KP69 011152Z AUTO 33003KT 11/09 A2996 RMK AO1 SLP135 T01110094
10133 20111 53005





000
SAUS45 KMSO 011053
MTRP69
METAR KP69 011052Z AUTO 34003KT 11/10 A2995 RMK AO1 SLP129 T01110100





000
SAUS45 KMSO 010954
MTRP69
METAR KP69 010952Z AUTO 30003KT 12/10 A2995 RMK AO1 SLP126 T01170100





000
SAUS45 KMSO 010853
MTRP69
METAR KP69 010852Z AUTO 32003KT 12/11 A2994 RMK AO1 SLP123 T01170106
50001





000
SAUS45 KMSO 010754
MTRP69
METAR KP69 010752Z AUTO 33003KT 12/11 A2995 RMK AO1 SLP130 T01220106
402610111





000
SAUS45 KMSO 010654
MTRP69
METAR KP69 010652Z AUTO 00000KT 13/11 A2994 RMK AO1 SLP131 T01280111





000
SAUS45 KMSO 010654
MTRP69
METAR KP69 010652Z AUTO 00000KT 13/11 A2994 RMK AO1 SLP131 T01280111





000
SAUS45 KMSO 010554
MTRP69
METAR KP69 010552Z AUTO 00000KT 13/11 A2994 RMK AO1 SLP129 T01330111
10206 20133 51017





000
SAUS45 KMSO 010554
MTRP69
METAR KP69 010552Z AUTO 00000KT 13/11 A2994 RMK AO1 SLP129 T01330111
10206 20133 51017





000
SAUS45 KMSO 010454
MTRP69
METAR KP69 010452Z AUTO 00000KT 14/12 A2993 RMK AO1 SLP127 T01440117





000
SAUS45 KMSO 010353
MTRP69
METAR KP69 010352Z AUTO 00000KT 14/12 A2991 RMK AO1 SLP123 T01440122





000
SAUS45 KMSO 010254
MTRP69
METAR KP69 010252Z AUTO 00000KT 16/13 A2989 RMK AO1 SLP115 T01610128
53004





000
SAUS45 KMSO 010154
MTRP69
METAR KP69 010152Z AUTO 00000KT 17/13 A2987 RMK AO1 SLP106 T01720133





000
SAUS45 KMSO 010154
MTRP69
METAR KP69 010152Z AUTO 00000KT 17/13 A2987 RMK AO1 SLP106 T01720133





000
SAUS45 KMSO 010054
MTRP69
METAR KP69 010052Z AUTO 00000KT 20/13 A2987 RMK AO1 SLP103 T02000128





000
SAUS45 KMSO 312354
MTRP69
METAR KP69 312352Z AUTO 36003KT 21/13 A2987 RMK AO1 SLP105 T02060133
10261 20167 56031





000
SAUS45 KMSO 312254
MTRP69
METAR KP69 312252Z AUTO 00000KT 24/12 A2990 RMK AO1 SLP110 T02390117





000
SAUS45 KMSO 312154
MTRP69
METAR KP69 312152Z AUTO 00000KT 26/10 A2993 RMK AO1 SLP119 T02560100





000
SAUS45 KMSO 312054
MTRP69
METAR KP69 312052Z AUTO 00000KT 26/10 A2997 RMK AO1 SLP133 T02560100
56035





000
SAUS45 KMSO 312054
MTRP69
METAR KP69 312052Z AUTO 00000KT 26/10 A2997 RMK AO1 SLP133 T02560100
56035





000
SAUS45 KMSO 311954
MTRP69
METAR KP69 311952Z AUTO 36003KT 21/11 A3000 RMK AO1 SLP149 T02110106





000
SAUS45 KMSO 311954
MTRP69
METAR KP69 311952Z AUTO 36003KT 21/11 A3000 RMK AO1 SLP149 T02110106





000
SAUS45 KMSO 311854
MTRP69
METAR KP69 311852Z AUTO 35004KT 18/11 A3004 RMK AO1 SLP165 T01830111





000
SAUS45 KMSO 311854
MTRP69
METAR KP69 311852Z AUTO 35004KT 18/11 A3004 RMK AO1 SLP165 T01830111





000
SAUS45 KMSO 311754
MTRP69
METAR KP69 311752Z AUTO 00000KT 17/11 A3008 RMK AO1 SLP177 T01720111
10172 20111 58014





000
SAUS45 KMSO 311754
MTRP69
METAR KP69 311752Z AUTO 00000KT 17/11 A3008 RMK AO1 SLP177 T01720111
10172 20111 58014





000
SAUS45 KMSO 311654
MTRP69
METAR KP69 311652Z AUTO 00000KT 14/11 A3010 RMK AO1 SLP188 T01390111





000
SAUS45 KMSO 311654
MTRP69
METAR KP69 311652Z AUTO 00000KT 14/11 A3010 RMK AO1 SLP188 T01390111





000
SAUS45 KMSO 311554
MTRP69
METAR KP69 311552Z AUTO 00000KT 13/11 A3011 RMK AO1 SLP193 T01280106





000
SAUS45 KMSO 311454
MTRP69
METAR KP69 311452Z AUTO 00000KT 12/10 A3012 RMK AO1 SLP197 T01170100
51006





000
SAUS45 KMSO 311454
MTRP69
METAR KP69 311452Z AUTO 00000KT 12/10 A3012 RMK AO1 SLP197 T01170100
51006





000
SAUS45 KMSO 311353
MTRP69
METAR KP69 311352Z AUTO 00000KT 12/10 A3012 RMK AO1 SLP196 T01170100





000
SAUS45 KMSO 311254
MTRP69
METAR KP69 311252Z AUTO 00000KT 12/10 A3011 RMK AO1 SLP192 T01170100





000
SAUS45 KMSO 311254
MTRP69
METAR KP69 311252Z AUTO 00000KT 12/10 A3011 RMK AO1 SLP192 T01170100





000
SAUS45 KMSO 311154
MTRP69
METAR KP69 311152Z AUTO 00000KT 12/11 A3010 RMK AO1 SLP189 70064
T01170106 10133 20117 52001





000
SAUS45 KMSO 311154
MTRP69
METAR KP69 311152Z AUTO 00000KT 12/11 A3010 RMK AO1 SLP189 70064
T01170106 10133 20117 52001





000
SAUS45 KMSO 311054
MTRP69
METAR KP69 311052Z AUTO 00000KT 12/11 A3010 RMK AO1 SLP189 T01170106





000
SAUS45 KMSO 311054
MTRP69
METAR KP69 311052Z AUTO 00000KT 12/11 A3010 RMK AO1 SLP189 T01170106





000
SAUS45 KMSO 310954
MTRP69
METAR KP69 310952Z AUTO 00000KT 12/11 A3010 RMK AO1 SLP188 T01170106





000
SAUS45 KMSO 310853
MTRP69
METAR KP69 310852Z AUTO 20003KT 12/11 A3010 RMK AO1 SLP181 T01220106
52003





000
SAUS45 KMSO 310753
MTRP69
METAR KP69 310752Z AUTO 18003KT 12/11 A3009 RMK AO1 SLP179 T01220111
402170122





000
SAUS45 KMSO 310753
MTRP69
METAR KP69 310752Z AUTO 18003KT 12/11 A3009 RMK AO1 SLP179 T01220111
402170122





000
SAUS45 KMSO 310653
MTRP69
METAR KP69 310652Z AUTO 23003KT 13/12 A3009 RMK AO1 SLP179 T01280117





000
SAUS45 KMSO 310653
MTRP69
METAR KP69 310652Z AUTO 23003KT 13/12 A3009 RMK AO1 SLP179 T01280117





000
SAUS45 KMSO 310554
MTRP69
METAR KP69 310552Z AUTO 00000KT 13/12 A3009 RMK AO1 SLP177 60007
T01280117 10144 20128 50010





000
SAUS45 KMSO 310554
MTRP69
METAR KP69 310552Z AUTO 00000KT 13/12 A3009 RMK AO1 SLP177 60007
T01280117 10144 20128 50010





000
SAUS45 KMSO 310454
MTRP69
METAR KP69 310452Z AUTO 00000KT 13/13 A3009 RMK AO1 SLP179 T01330128





000
SAUS45 KMSO 310354
MTRP69
METAR KP69 310352Z AUTO 00000KT 14/13 A3008 RMK AO1 SLP179 T01390128





000
SAUS45 KMSO 310254
MTRP69
METAR KP69 310252Z AUTO 00000KT 14/13 A3005 RMK AO1 SLP170 60007
T01390128 51001





000
SAUS45 KMSO 310154
MTRP69
METAR KP69 310152Z AUTO 00000KT 14/13 A3005 RMK AO1 SLP169 P0003
T01390128





000
SAUS45 KMSO 310154
MTRP69
METAR KP69 310152Z AUTO 00000KT 14/13 A3005 RMK AO1 SLP169 P0003
T01390128





000
SAUS45 KMSO 310054
MTRP69
METAR KP69 310052Z AUTO 00000KT 14/13 A3006 RMK AO1 SLP171 P0004
T01440133





000
SAUS45 KMSO 310054
MTRP69
METAR KP69 310052Z AUTO 00000KT 14/13 A3006 RMK AO1 SLP171 P0004
T01440133





000
SAUS45 KMSO 302354
MTRP69
METAR KP69 302352Z AUTO 00000KT 14/13 A3005 RMK AO1 SLP167 P0018
60057 T01440133 10217 20139 51051





000
SAUS45 KMSO 302254
MTRP69
METAR KP69 302252Z AUTO 00000KT 14/13 A3003 RMK AO1 SLP160 P0006
T01440133





000
SAUS45 KMSO 302153
MTRP69
METAR KP69 302152Z AUTO 00000KT 14/13 A2997 RMK AO1 SLP141 P0033
T01390128





000
SAUS45 KMSO 302054
MTRP69
METAR KP69 302052Z AUTO 36004KT 21/12 A2989 RMK AO1 SLP108 T02110122
55001





000
SAUS45 KMSO 302054
MTRP69
METAR KP69 302052Z AUTO 36004KT 21/12 A2989 RMK AO1 SLP108 T02110122
55001





000
SAUS45 KMSO 301954
MTRP69
METAR KP69 301952Z AUTO 00000KT 21/14 A2988 RMK AO1 SLP104 T02060144





000
SAUS45 KMSO 301954
MTRP69
METAR KP69 301952Z AUTO 00000KT 21/14 A2988 RMK AO1 SLP104 T02060144





000
SAUS45 KMSO 301854
MTRP69
METAR KP69 301852Z AUTO 00000KT 19/14 A2988 RMK AO1 SLP105 T01940144





000
SAUS45 KMSO 301754
MTRP69
METAR KP69 301752Z AUTO 00000KT 20/14 A2990 RMK AO1 SLP110 T02000144
10200 20144 58004





000
SAUS45 KMSO 301754
MTRP69
METAR KP69 301752Z AUTO 00000KT 20/14 A2990 RMK AO1 SLP110 T02000144
10200 20144 58004





000
SAUS45 KMSO 301654
MTRP69
METAR KP69 301652Z AUTO 00000KT 17/14 A2991 RMK AO1 SLP116 T01720144





000
SAUS45 KMSO 301554
MTRP69
METAR KP69 301552Z AUTO 00000KT 16/13 A2991 RMK AO1 SLP116 T01610133





000
SAUS45 KMSO 301454
MTRP69
METAR KP69 301452Z AUTO 00000KT 14/13 A2991 RMK AO1 SLP117 T01440133
53001





000
SAUS45 KMSO 301454
MTRP69
METAR KP69 301452Z AUTO 00000KT 14/13 A2991 RMK AO1 SLP117 T01440133
53001





000
SAUS45 KMSO 301354
MTRP69
METAR KP69 301352Z AUTO 00000KT 14/13 A2990 RMK AO1 SLP113 T01440128





000
SAUS45 KMSO 301354
MTRP69
METAR KP69 301352Z AUTO 00000KT 14/13 A2990 RMK AO1 SLP113 T01440128





000
SAUS45 KMSO 301254
MTRP69
METAR KP69 301252Z AUTO 00000KT 14/13 A2990 RMK AO1 SLP111 T01440133





000
SAUS45 KMSO 301254
MTRP69
METAR KP69 301252Z AUTO 00000KT 14/13 A2990 RMK AO1 SLP111 T01440133





000
SAUS45 KMSO 301154
MTRP69
METAR KP69 301152Z AUTO 00000KT 15/14 A2990 RMK AO1 SLP114 70008
T01500139 10156 20150 51004





000
SAUS45 KMSO 301154
MTRP69
METAR KP69 301152Z AUTO 00000KT 15/14 A2990 RMK AO1 SLP114 70008
T01500139 10156 20150 51004





000
SAUS45 KMSO 301054
MTRP69
METAR KP69 301052Z AUTO 00000KT 15/14 A2990 RMK AO1 SLP111 T01500139





000
SAUS45 KMSO 301054
MTRP69
METAR KP69 301052Z AUTO 00000KT 15/14 A2990 RMK AO1 SLP111 T01500139





000
SAUS45 KMSO 300953
MTRP69
METAR KP69 300952Z AUTO 00000KT 15/14 A2990 RMK AO1 SLP112 T01500139





000
SAUS45 KMSO 300853
MTRP69
METAR KP69 300852Z AUTO 00000KT 15/14 A2989 RMK AO1 SLP109 T01500144
53002





000
SAUS45 KMSO 300853
MTRP69
METAR KP69 300852Z AUTO 00000KT 15/14 A2989 RMK AO1 SLP109 T01500144
53002





000
SAUS45 KMSO 300754
MTRP69
METAR KP69 300752Z AUTO 00000KT 15/14 A2989 RMK AO1 SLP110 T01500139
402110150





000
SAUS45 KMSO 300654
MTRP69
METAR KP69 300652Z AUTO 00000KT 15/14 A2988 RMK AO1 SLP105 T01500139





    US Dept of Commerce
    National Oceanic and Atmospheric Administration
    National Weather Service
    1325 East West Highway
    Silver Spring, MD 20910
    Page Author: NWS Internet Services Team
Disclaimer
Information Quality
Credits
Glossary
Privacy Policy
Freedom of Information Act (FOIA)
About Us
Career Opportunities